Latest Weather Observations for Derby

IDW60801

Issued at 7:03 pm WST Wednesday 29 March 2017 (issued every 30 minutes, with the page automatically refreshed every 10 minutes)

About weather observations | Map of weather stations | Latest weather observations for WA | Other Formats
Station Details ID: 003032 Name: DERBY AERO Lat: -17.37 Lon: 123.66 Height: 6.2 m
Data from the previous 72 hours. | See also: Recent months at Derby
Date/Time
WST
Temp
°C
App
Temp
°C
Dew
Point
°C
Rel
Hum
%
Delta-T
°C
Wind Press
QNH
hPa
Press
MSL
hPa
Rain since
9am
mm
Dir  Spd
km/h
Gust
km/h
Spd
kts
Gust
kts
29/07:00pm 30.2 35.7 26.1 79 2.9 W 9 11 5 6 1008.8 1008.8 0.0
29/06:30pm 30.9 35.6 25.5 73 3.8 NNW 11 13 6 7 1008.3 1008.3 0.0
29/06:00pm 31.0 36.0 26.0 74 3.6 NW 11 15 6 8 1007.5 1007.5 0.0
29/05:30pm 31.9 35.9 26.2 72 4.1 NNW 17 19 9 10 1007.1 1007.1 0.0
29/05:00pm 32.7 37.2 25.8 67 4.9 NW 13 17 7 9 1007.1 1007.1 0.0
29/04:30pm 33.4 36.8 25.9 65 5.4 WNW 19 22 10 12 1007.0 1007.0 0.0
29/04:00pm 34.7 39.9 26.9 64 5.7 NNW 13 22 7 12 1006.6 1006.6 0.0
29/03:30pm 35.0 39.7 26.1 60 6.4 NW 13 19 7 10 1006.5 1006.5 0.0
29/03:00pm 34.6 38.5 25.4 59 6.6 NW 15 20 8 11 1006.8 1006.8 0.0
29/02:30pm 35.4 41.4 26.4 59 6.5 NW 7 19 4 10 1007.1 1007.1 0.0
29/02:00pm 35.4 40.7 25.9 58 6.8 WNW 9 13 5 7 1007.3 1007.3 0.0
29/01:30pm 34.5 38.9 24.4 55 7.1 NW 9 15 5 8 1007.8 1007.8 0.0
29/01:00pm 33.5 38.3 24.4 59 6.4 S 7 9 4 5 1008.2 1008.2 0.0
29/12:30pm 33.8 38.5 24.9 59 6.3 WSW 9 13 5 7 1008.5 1008.5 0.0
29/12:00pm 33.7 37.9 24.8 59 6.3 S 11 15 6 8 1009.1 1009.1 0.0
29/11:30am 33.3 38.0 25.0 61 5.9 S 9 13 5 7 1009.6 1009.6 0.0
29/11:00am 32.9 37.8 25.2 64 5.5 S 9 13 5 7 1010.3 1010.3 0.0
29/10:30am 31.7 35.9 24.8 67 4.9 SW 11 17 6 9 1010.6 1010.6 0.0
29/10:00am 30.9 34.8 24.3 68 4.6 SSW 11 15 6 8 1010.8 1010.8 0.0
29/09:30am 30.4 34.3 24.8 72 3.9 SSW 13 17 7 9 1011.0 1011.0 0.0
29/09:00am 30.7 35.7 26.0 76 3.3 S 11 19 6 10 1011.0 1011.0 0.0
29/08:30am 29.3 33.5 25.3 79 2.8 S 13 15 7 8 1011.1 1011.1 0.0
29/08:00am 28.8 33.8 25.4 82 2.4 S 9 13 5 7 1011.1 1011.1 0.0
29/07:30am 27.9 32.8 25.3 86 1.8 SSW 9 13 5 7 1010.9 1010.9 0.0
29/07:00am 27.2 32.7 25.6 91 1.1 S 7 9 4 5 1010.8 1010.8 0.0
29/06:30am 26.7 32.3 25.5 93 0.8 S 6 7 3 4 1010.4 1010.4 0.0
29/06:00am 26.4 32.0 25.4 94 0.7 S 6 7 3 4 1010.0 1010.0 0.0
29/05:30am 26.3 31.7 25.1 93 0.8 S 6 7 3 4 1009.6 1009.6 0.0
29/05:00am 26.5 31.9 25.1 92 1.0 S 6 7 3 4 1009.2 1009.2 0.0
29/04:30am 26.4 31.7 25.2 93 0.8 SW 7 9 4 5 1008.9 1008.9 0.0
29/04:00am 26.4 31.7 25.0 92 1.0 WSW 6 9 3 5 1008.7 1008.7 0.0
29/03:30am 26.6 31.7 25.0 91 1.1 SSW 7 9 4 5 1008.6 1008.6 0.0
29/03:00am 26.6 31.8 24.8 90 1.3 S 6 9 3 5 1008.6 1008.6 0.0
29/02:30am 26.7 32.2 24.7 89 1.4 SSE 4 7 2 4 1008.4 1008.4 0.0
29/02:00am 27.0 31.6 24.8 88 1.5 SSW 9 11 5 6 1008.6 1008.6 0.0
29/01:30am 26.8 31.8 24.8 89 1.4 SW 7 9 4 5 1008.7 1008.7 0.0
29/01:00am 27.0 32.0 24.8 88 1.5 WSW 7 9 4 5 1009.2 1009.2 0.0
29/12:30am 26.9 32.0 24.9 89 1.4 W 7 11 4 6 1009.4 1009.4 0.0
29/12:00am 27.1 32.6 25.3 90 1.3 WSW 6 7 3 4 1009.5 1009.5 0.0
 
Date/Time
WST
Temp
°C
App
Temp
°C
Dew
Point
°C
Rel
Hum
%
Delta-T
°C
Wind Press
QNH
hPa
Press
MSL
hPa
Rain since
9am
mm
Dir  Spd
km/h
Gust
km/h
Spd
kts
Gust
kts
28/11:30pm 27.2 32.3 25.0 88 1.5 WSW 7 9 4 5 1009.7 1009.7 0.0
28/11:00pm 27.5 32.6 24.9 86 1.8 SW 7 7 4 4 1010.2 1010.2 0.0
28/10:30pm 27.8 33.1 25.2 86 1.8 SSW 7 9 4 5 1010.3 1010.3 0.0
28/10:00pm 27.9 32.2 24.9 84 2.1 SW 11 15 6 8 1010.4 1010.4 0.0
28/09:30pm 28.1 32.1 25.1 84 2.1 SW 13 17 7 9 1010.1 1010.1 0.0
28/09:00pm 28.2 31.7 24.8 82 2.4 SW 15 19 8 10 1009.5 1009.5 0.0
28/08:30pm 28.8 32.5 25.2 81 2.5 W 15 20 8 11 1009.4 1009.4 0.0
28/08:00pm 29.5 32.5 24.6 75 3.4 WNW 17 20 9 11 1009.3 1009.3 0.0
28/07:30pm 29.8 34.3 25.8 79 2.8 NNW 13 15 7 8 1008.9 1008.9 0.0
28/07:00pm 29.9 34.5 25.9 79 2.8 NNW 13 17 7 9 1008.3 1008.3 0.0
28/06:30pm 30.0 33.9 25.5 77 3.2 NNW 15 20 8 11 1007.8 1007.8 0.0
28/06:00pm 30.1 33.5 25.2 75 3.5 NW 17 20 9 11 1007.7 1007.7 0.0
28/05:30pm 30.6 33.0 24.3 69 4.4 NNW 19 20 10 11 1007.4 1007.4 0.0
28/05:00pm 30.9 32.7 23.5 64 5.1 NW 20 26 11 14 1007.2 1007.2 0.0
28/04:30pm 31.7 33.6 23.5 62 5.7 NW 19 24 10 13 1007.0 1007.0 0.0
28/04:00pm 33.2 34.6 22.6 53 7.3 NW 19 24 10 13 1006.6 1006.6 0.0
28/03:30pm 33.4 35.8 23.7 56 6.8 NW 17 22 9 12 1006.7 1006.7 0.0
28/03:00pm 33.5 36.2 23.5 55 7.0 NNW 15 22 8 12 1007.0 1007.0 0.0
28/02:30pm 33.8 36.5 22.9 53 7.5 N 13 20 7 11 1007.2 1007.2 0.0
28/02:00pm 33.3 35.7 23.6 56 6.8 NNW 17 22 9 12 1007.5 1007.5 0.0
28/01:30pm 33.2 36.1 24.4 60 6.2 NNW 17 22 9 12 1007.8 1007.8 0.0
28/01:00pm 33.0 34.5 22.7 54 7.1 NW 19 26 10 14 1008.1 1008.1 0.0
28/12:30pm 33.3 35.3 23.0 54 7.1 NW 17 24 9 13 1008.3 1008.3 0.0
28/12:00pm 33.3 36.4 23.6 56 6.8 WNW 13 20 7 11 1008.8 1008.8 0.0
28/11:30am 32.1 36.9 24.4 63 5.4 NNW 7 11 4 6 1009.4 1009.4 0.0
28/11:00am 31.7 37.3 24.3 65 5.2 SW 2 7 1 4 1009.6 1009.6 0.0
28/10:30am 31.0 36.4 25.4 72 4.0 WSW 7 11 4 6 1010.0 1010.0 0.0
28/10:00am 31.3 36.6 24.9 69 4.5 SSW 6 9 3 5 1010.3 1010.3 0.0
28/09:30am 31.0 36.2 25.1 71 4.2 WSW 7 11 4 6 1010.7 1010.7 0.0
28/09:00am 30.3 35.0 24.9 73 3.8 S 9 15 5 8 1010.8 1010.8 0.0
28/08:30am 29.7 33.7 25.0 76 3.3 SSW 13 17 7 9 1010.9 1010.9 0.0
28/08:00am 29.2 33.3 25.2 79 2.8 SW 13 17 7 9 1010.7 1010.7 0.0
28/07:30am 28.8 33.4 25.4 82 2.4 SW 11 15 6 8 1010.5 1010.5 0.0
28/07:00am 27.8 32.8 25.4 87 1.7 SSW 9 11 5 6 1010.3 1010.3 0.0
28/06:30am 27.0 31.9 25.2 90 1.3 SSW 9 11 5 6 1010.2 1010.2 0.0
28/06:00am 26.6 31.7 25.0 91 1.1 SW 7 9 4 5 1010.1 1010.1 0.0
28/05:30am 26.5 31.8 24.9 91 1.1 S 6 7 3 4 1009.9 1009.9 0.0
28/05:00am 26.4 31.6 24.8 91 1.1 SW 6 7 3 4 1009.2 1009.2 0.0
28/04:30am 26.4 31.4 24.8 91 1.1 WSW 7 9 4 5 1009.1 1009.1 0.0
28/04:00am 26.4 31.0 24.8 91 1.1 WSW 9 11 5 6 1008.8 1008.8 0.0
28/03:30am 26.5 31.1 24.7 90 1.2 WSW 9 11 5 6 1008.8 1008.8 0.0
28/03:00am 26.6 31.5 24.6 89 1.4 W 7 11 4 6 1008.9 1008.9 0.0
28/02:30am 26.6 31.6 24.8 90 1.3 W 7 9 4 5 1008.7 1008.7 0.0
28/02:00am 26.6 31.7 24.6 89 1.4 W 6 7 3 4 1008.8 1008.8 0.0
28/01:30am 26.9 32.3 24.5 87 1.7 SSW 4 7 2 4 1008.8 1008.8 0.0
28/01:00am 26.9 31.8 24.7 88 1.5 S 7 9 4 5 1009.1 1009.1 0.0
28/12:30am 27.1 31.6 24.6 86 1.7 WSW 9 9 5 5 1009.5 1009.5 0.0
28/12:00am 27.2 31.6 24.5 85 1.9 WNW 9 13 5 7 1009.9 1009.9 0.0
 
Date/Time
WST
Temp
°C
App
Temp
°C
Dew
Point
°C
Rel
Hum
%
Delta-T
°C
Wind Press
QNH
hPa
Press
MSL
hPa
Rain since
9am
mm
Dir  Spd
km/h
Gust
km/h
Spd
kts
Gust
kts
27/11:30pm 27.3 31.4 24.6 85 1.9 W 11 15 6 8 1010.2 1010.2 0.0
27/11:00pm 27.4 31.8 24.5 84 2.0 W 9 11 5 6 1010.3 1010.3 0.0
27/10:30pm 27.6 32.8 24.8 85 2.0 WNW 6 9 3 5 1010.4 1010.4 0.0
27/10:00pm 27.9 32.6 24.9 84 2.1 WSW 9 13 5 7 1010.0 1010.0 0.0
27/09:30pm 28.2 32.9 25.0 83 2.2 SW 9 13 5 7 1010.2 1010.2 0.0
27/09:00pm 28.7 32.0 24.5 78 2.9 WNW 15 19 8 10 1010.0 1010.0 0.0
27/08:30pm 29.0 32.5 24.8 78 2.9 WNW 15 20 8 11 1009.7 1009.7 0.0
27/08:00pm 29.0 33.5 25.8 83 2.3 NW 13 17 7 9 1009.4 1009.4 0.0
27/07:30pm 28.7 32.5 24.0 76 3.3 NW 11 15 6 8 1009.1 1009.1 0.0
27/07:00pm 29.1 32.5 24.0 74 3.5 NW 13 17 7 9 1008.7 1008.7 0.0
27/06:30pm 29.3 32.1 23.7 72 3.9 NW 15 20 8 11 1008.0 1008.0 0.0
27/06:00pm 29.7 32.2 23.2 68 4.5 NW 15 17 8 9 1007.6 1007.6 0.0
27/05:30pm 31.2 34.2 21.9 57 6.3 N 9 9 5 5 1007.7 1007.7 0.0
27/05:00pm 32.3 34.9 21.2 52 7.5 NW 9 11 5 6 1007.6 1007.6 0.0
27/04:30pm 32.6 34.7 22.4 55 7.0 NW 15 17 8 9 1007.4 1007.4 0.0
27/04:00pm 32.7 34.9 21.9 53 7.4 NW 13 19 7 10 1007.1 1007.1 0.0
27/03:30pm 32.8 35.4 22.6 55 7.0 NNW 13 24 7 13 1007.2 1007.2 0.0
27/03:00pm 33.3 36.7 22.7 53 7.3 W 9 19 5 10 1007.3 1007.3 0.0
27/02:30pm 33.0 35.3 22.1 52 7.4 NW 13 19 7 10 1007.7 1007.7 0.0
27/02:00pm 33.5 36.2 22.9 53 7.3 NNW 13 19 7 10 1007.9 1007.9 0.0
27/01:30pm 32.7 35.1 21.5 51 7.6 NW 11 19 6 10 1008.2 1008.2 0.0
27/01:00pm 32.6 34.9 22.7 56 6.8 NNW 15 20 8 11 1008.6 1008.6 0.0
27/12:30pm 32.6 35.1 22.4 55 7.0 NNW 13 20 7 11 1008.9 1008.9 0.0
27/12:00pm 32.2 34.6 22.3 56 6.8 NNW 13 22 7 12 1009.4 1009.4 0.0
27/11:30am 31.5 35.5 23.1 61 5.8 WNW 7 11 4 6 1010.1 1010.1 0.0
27/11:00am 31.3 36.0 23.9 64 5.1 WNW 6 11 3 6 1010.6 1010.6 0.0
27/10:30am 30.0 33.9 22.9 65 4.9 W 7 9 4 5 1011.1 1011.1 0.0
27/10:00am 29.6 33.3 23.3 69 4.3 SW 9 11 5 6 1011.4 1011.4 0.0
27/09:30am 29.2 34.8 24.3 75 3.4 SE 2 7 1 4 1011.6 1011.6 0.0
27/09:00am 28.2 32.8 24.2 79 2.8 S 7 9 4 5 1012.0 1012.0 0.0
27/08:30am 28.0 31.5 23.6 77 3.0 S 11 15 6 8 1011.9 1011.9 0.0
27/08:00am 28.5 32.2 23.2 73 3.6 E 9 13 5 7 1011.7 1011.7 0.0
27/07:30am 27.2 30.5 23.9 82 2.3 E 13 19 7 10 1011.5 1011.5 0.0
27/07:00am 26.1 28.4 24.1 89 1.4 SE 19 24 10 13 1011.6 1011.6 0.0
27/06:30am 25.3 28.5 23.7 91 1.1 ESE 13 17 7 9 1011.4 1011.4 0.0
27/06:00am 25.3 28.5 23.7 91 1.1 SE 13 17 7 9 1011.2 1011.2 0.0
27/05:30am 25.0 28.0 24.0 94 0.7 SSE 15 20 8 11 1010.9 1010.9 0.0
27/05:00am 24.5 28.8 23.3 93 0.8 SE 6 9 3 5 1009.8 1009.8 0.0
27/04:30am 24.8 29.1 23.6 93 0.8 ESE 7 9 4 5 1009.5 1009.5 0.0
27/04:00am 24.7 29.0 23.3 92 1.0 ESE 6 7 3 4 1009.2 1009.2 0.0
27/03:30am 24.9 29.5 23.1 90 1.2 ENE 4 7 2 4 1009.1 1009.1 0.0
27/03:00am 25.0 29.0 23.1 89 1.3 NNE 7 9 4 5 1008.9 1008.9 0.0
27/02:30am 25.2 27.8 23.3 89 1.3 NNE 15 22 8 12 1008.9 1008.9 0.0
27/02:00am 25.4 27.3 23.5 89 1.3 NNE 19 22 10 12 1009.3 1009.3 0.0
27/01:30am 25.9 28.8 23.9 89 1.4 NNE 15 19 8 10 1009.5 1009.5 0.0
27/01:00am 25.9 28.8 23.9 89 1.4 NNE 15 22 8 12 1009.9 1009.9 0.0
27/12:30am 25.7 27.7 23.6 88 1.4 NNE 19 28 10 15 1010.3 1010.3 0.0
27/12:00am 25.2 27.6 22.9 87 1.6 NE 15 22 8 12 1011.0 1011.0 0.0
 
Date/Time
WST
Temp
°C
App
Temp
°C
Dew
Point
°C
Rel
Hum
%
Delta-T
°C
Wind Press
QNH
hPa
Press
MSL
hPa
Rain since
9am
mm
Dir  Spd
km/h
Gust
km/h
Spd
kts
Gust
kts
26/11:30pm 25.3 28.2 23.2 88 1.4 N 13 19 7 10 1011.2 1011.2 0.0
26/11:00pm 25.8 28.3 23.1 85 1.8 NE 15 20 8 11 1011.4 1011.4 0.0
26/10:30pm 26.1 29.5 23.4 85 1.8 N 11 15 6 8 1011.1 1011.1 0.0
26/10:00pm 26.4 30.5 23.3 83 2.1 N 7 11 4 6 1010.9 1010.9 0.0
26/09:30pm 26.6 29.6 22.7 79 2.6 N 11 15 6 8 1010.4 1010.4 0.0
26/09:00pm 26.7 26.8 21.9 75 3.2 NNE 24 35 13 19 1010.7 1010.7 0.0
26/08:30pm 28.9 30.2 23.3 72 3.8 NNE 22 35 12 19 1010.5 1010.5 0.0
26/08:00pm 29.6 32.6 24.7 75 3.4 N 17 20 9 11 1009.6 1009.6 0.0
26/07:30pm 29.4 33.0 24.3 74 3.5 N 13 17 7 9 1009.1 1009.1 0.0

Other Formats:

Comma delimited format used in spreadsheet applications
http://www.bom.gov.au/fwo/IDW60801/IDW60801.95205.axf

JavaScript Object Notation format (JSON) in row-major order
http://www.bom.gov.au/fwo/IDW60801/IDW60801.95205.json